Martha, Kentucky
Current Conditions -  °F | °C
As of 5:15 AM on Tuesday 21 Oct 2014 (Local Time) from KSJS Reporting Station
Broken Clouds Broken Clouds  
Wind Chill: 52°   Ceiling: 6000
Heat Index: 52°   Visibility: 10mi
Dew Point: 49°   Wind: 5mph
Humidity: 89%   Direction: 230°SW
Pressure: 29.93"   Gusts: NA
Location:  38.01°N, 82.91°W
Report Text: KSJS 210915Z AUTO 23004KT 10SM SCT026 SCT037 BKN060 11/09 A2993 RMK AO2 T01100092
Loading
Personal Weather Stations






























Interactive Weather Map
Tropical Storm Tracking
New forecast layout! Learn more

10-Day Weather Forecast

Advertisements
Track Severe Weather on mobile